Terminal Aerodrome Forecast
Issued by NWS

Home | Current Version | Previous Version | Text Only | Print | Product List | Glossary Off
Versions: 1 2 3 4 5 6 7 8 9 10 11 12 13 14 15 16

000
FTUS42 KMHX 291131
TAFPGV
TAF
KPGV 291131Z 2912/3012 VRB03KT P6SM BKN200
      TEMPO 2912/2913 1SM BR VV007
     FM291500 05006KT P6SM SCT040
     FM300900 VRB03KT 3SM BR OVC100
      AMD LTD TO CLD VIS AND WIND=

USA.gov is the U.S. government's official web portal to all federal, state and local government web resources and services.